Stations météo

réclame
Mon MeteoGroup
Gielas, Suède (2110): Température de l'air & dewpoint: 12.01.2019 13:00:00 - 18.01.2019 13:00:00 (CET)Gielas, Suède (2110): Vitesse du vent & gusts: 12.01.2019 13:00:00 - 18.01.2019 13:00:00 (CET)Gielas, Suède (2110): Direction du vent: 12.01.2019 13:00:00 - 18.01.2019 13:00:00 (CET)Gielas, Suède (2110): visibility: 12.01.2019 13:00:00 - 18.01.2019 13:00:00 (CET)Gielas, Suède (2110): Quantités de précipitations: 12.01.2019 13:00:00 - 18.01.2019 13:00:00 (CET)
Date & Time tt [°C] td [°C] ff [km/h] ff [knt] fx [km/h] fx [knt] dd vv [km] rr [mm]
18.01.2019 13:00:00 - - - - - - - - -
18.01.2019 12:00:00 -6,5 -7,7 8 4 26 14 W 26 0,0
18.01.2019 11:00:00 -7,5 -8,6 9 5 27 15 WNW 50 0,0
18.01.2019 10:00:00 -8,9 -10,1 8 4 18 10 W 50 0,0
18.01.2019 09:00:00 -8,0 -9,1 5 3 18 10 WSW 49 0,0
18.01.2019 08:00:00 -8,3 -9,1 11 6 29 16 W 32 0,0
18.01.2019 07:00:00 -13,6 -15,4 5 3 18 10 NNE 20 0,0
18.01.2019 06:00:00 -12,2 -13,8 4 2 8 4 SSE 34 0,0
18.01.2019 05:00:00 -9,1 -10,3 3 2 15 8 SE 25 0,0
18.01.2019 04:00:00 -8,0 -8,9 5 3 14 8 NW 48 0,0
18.01.2019 03:00:00 - - - - 20 11 - - -
18.01.2019 02:00:00 -7,6 -8,7 10 5 27 15 SW 50 0,0
18.01.2019 01:00:00 -7,7 -8,8 10 5 31 17 WSW 12 0,0
18.01.2019 00:00:00 -8,0 -9,1 14 7 32 17 W 6 0,0
17.01.2019 23:00:00 -7,5 -8,3 9 5 21 11 SW 7 0,0
17.01.2019 22:00:00 -8,1 -8,9 10 5 22 12 SSW 50 0,0
17.01.2019 21:00:00 -10,0 -11,2 4 2 20 11 S 39 0,0
17.01.2019 20:00:00 -8,5 -9,4 10 6 30 16 W 29 0,0
17.01.2019 19:00:00 -19,9 -21,6 2 1 14 8 N 26 0,0
17.01.2019 18:00:00 -22,1 -24,5 4 2 13 7 ENE 45 0,0
17.01.2019 17:00:00 -21,6 -23,4 4 2 - - NE 36 0,0
17.01.2019 16:00:00 -23,4 -25,7 - - - - - 19 0,0
17.01.2019 15:00:00 -24,6 -27,1 4 2 8 4 E 24 0,0
17.01.2019 14:00:00 -24,4 -27,0 3 2 7 4 NE 39 0,0
17.01.2019 13:00:00 -23,9 -26,2 4 2 8 5 E 39 0,0
17.01.2019 12:00:00 -25,6 -28,3 5 3 10 5 W 2,0 0,0
17.01.2019 11:00:00 -25,2 -27,6 4 2 9 5 NNE 2,5 0,0
17.01.2019 10:00:00 -25,9 -28,6 2 1 7 4 ESE 10 0,0
17.01.2019 09:00:00 -23,8 -26,4 3 1 10 5 N 16 0,0
17.01.2019 08:00:00 -24,1 -26,6 4 2 8 5 WSW 34 0,0
17.01.2019 07:00:00 -25,8 -28,2 2 1 5 3 ESE 50 0,0
17.01.2019 06:00:00 -29,2 -32,1 1 1 6 3 ESE 50 0,0
17.01.2019 05:00:00 -28,0 -30,8 3 2 8 4 W 44 0,0
17.01.2019 04:00:00 -26,8 -29,6 3 2 6 3 W 50 0,0
17.01.2019 03:00:00 -25,6 -28,3 1 1 6 3 NNE 50 0,0
17.01.2019 02:00:00 -24,7 -27,3 2 1 5 3 N 50 0,0
17.01.2019 01:00:00 -24,1 -26,6 4 2 7 4 W 50 0,0
17.01.2019 00:00:00 -23,5 -26,0 4 2 4 2 W 50 0,0
16.01.2019 23:00:00 -22,6 -25,0 0 0 7 4 NE 40 0,0
16.01.2019 22:00:00 -22,5 -24,9 3 2 5 3 W 11 0,0
16.01.2019 21:00:00 -22,9 -25,3 3 2 6 4 WSW 15 0,0
16.01.2019 20:00:00 -23,7 -26,2 1 1 5 3 NE - 0,0
16.01.2019 19:00:00 - - - - 5 3 - - -
16.01.2019 18:00:00 -26,1 -28,7 3 2 8 5 WSW 50 0,0
16.01.2019 17:00:00 -27,4 -30,1 4 2 6 3 NE 50 0,0
16.01.2019 16:00:00 -28,1 -30,7 1 1 8 5 ENE 50 0,0
16.01.2019 15:00:00 -29,5 -32,4 4 2 6 4 WSW 50 0,0
16.01.2019 14:00:00 -29,7 -32,6 1 1 6 4 S 50 0,0
16.01.2019 13:00:00 -29,2 -32,4 4 2 4 2 WNW 50 0,0
16.01.2019 12:00:00 -29,0 -31,8 2 1 9 5 WSW 50 0,0
16.01.2019 11:00:00 -29,6 -32,6 1 1 6 3 ENE 50 0,0
16.01.2019 10:00:00 -29,4 -32,3 3 1 8 5 NE 50 0,0
16.01.2019 09:00:00 -29,0 -31,9 7 4 9 5 WSW 50 0,0
16.01.2019 08:00:00 -27,7 -30,5 1 1 4 2 ENE 50 0,0
16.01.2019 07:00:00 -26,6 -29,3 1 1 4 2 E 50 0,0
16.01.2019 06:00:00 -27,1 -29,8 1 1 6 3 ESE 50 0,0
16.01.2019 05:00:00 -25,6 -28,0 2 1 6 3 E 50 0,0
16.01.2019 04:00:00 -24,6 -27,2 4 2 8 5 W 45 0,0
16.01.2019 03:00:00 -23,1 -25,3 5 3 9 5 WSW 40 0,0
16.01.2019 02:00:00 -21,3 -23,8 5 3 8 5 W 27 0,0
16.01.2019 01:00:00 -19,7 -21,7 3 2 9 5 W 23 0,0
16.01.2019 00:00:00 -20,2 -22,5 5 3 9 5 W 25 0,0
15.01.2019 23:00:00 -18,3 -20,3 7 4 11 6 WSW 21 0,0
15.01.2019 22:00:00 -16,4 -18,1 4 2 8 4 W 22 0,0
15.01.2019 21:00:00 -16,8 -18,6 2 1 6 4 ESE 14 0,0
15.01.2019 20:00:00 -17,8 -19,6 3 2 6 3 NE - 0,0
15.01.2019 19:00:00 -18,7 -20,5 3 2 5 3 WSW 3,3 0,0
15.01.2019 18:00:00 -19,7 -21,7 2 1 5 3 N 32 0,0
15.01.2019 17:00:00 -20,9 -23,0 3 2 8 4 ENE 34 0,0
15.01.2019 16:00:00 -21,6 -24,0 4 2 7 4 NE 35 0,0
15.01.2019 15:00:00 -19,6 -21,6 1 1 4 2 SW 32 0,0
15.01.2019 14:00:00 -21,2 -23,3 2 1 5 3 N 34 0,0
15.01.2019 13:00:00 -20,6 -22,7 1 1 10 5 W 28 0,0
15.01.2019 12:00:00 -22,5 -24,6 5 3 6 4 W 30 0,0
15.01.2019 11:00:00 -25,5 -27,8 3 2 9 5 E 35 0,0
15.01.2019 10:00:00 -26,3 -29,0 2 1 7 4 NW 34 0,0
15.01.2019 09:00:00 -24,6 -27,1 3 2 7 4 E 32 0,0
15.01.2019 08:00:00 -23,4 -25,9 3 2 5 3 ESE 7 0,0
15.01.2019 07:00:00 -23,7 -25,9 2 1 11 6 NNW 33 0,0
15.01.2019 06:00:00 -24,7 -27,1 5 3 7 4 W 27 0,0
15.01.2019 05:00:00 -24,1 -26,6 3 2 9 5 E 30 0,0
15.01.2019 04:00:00 -23,1 -25,6 3 1 9 5 NE 28 0,0
15.01.2019 03:00:00 -20,6 -22,6 5 3 10 5 NE 26 0,0
15.01.2019 02:00:00 -18,5 -20,5 5 3 8 5 ENE 21 0,0
15.01.2019 01:00:00 -15,9 -17,7 6 4 13 7 NE 20 0,0
15.01.2019 00:00:00 -12,6 -13,9 8 5 21 11 W 20 0,0
14.01.2019 23:00:00 -11,4 -12,3 9 5 17 9 WNW 22 0,0
14.01.2019 22:00:00 -12,1 -13,5 5 3 13 7 W 26 0,0
14.01.2019 21:00:00 -12,3 -13,7 3 2 14 8 SSE 27 0,0
14.01.2019 20:00:00 -12,0 -13,2 3 2 9 5 S 38 0,0
14.01.2019 19:00:00 -13,5 -14,8 3 1 6 3 NW 50 0,0
14.01.2019 18:00:00 -13,9 -15,2 3 2 8 5 ENE 50 0,0
14.01.2019 17:00:00 -12,8 -14,1 4 2 14 8 E 50 0,0
14.01.2019 16:00:00 -12,1 -13,8 5 3 26 14 N 50 0,0
14.01.2019 15:00:00 -11,4 -12,6 11 6 30 16 NW 50 0,0
14.01.2019 14:00:00 -13,1 -14,4 8 4 16 9 NNW 50 0,0
14.01.2019 13:00:00 -25,5 -27,8 7 4 18 10 NW 50 0,0
14.01.2019 12:00:00 -27,1 -29,6 4 2 9 5 E 23 0,0
14.01.2019 11:00:00 - -31,4 3 2 10 6 N 30 0,0
14.01.2019 10:00:00 - -32,0 4 2 10 5 NE 50 0,0
14.01.2019 09:00:00 -29,1 -32,0 3 2 8 5 ESE 50 0,3
14.01.2019 08:00:00 -29,2 -32,1 3 2 8 4 E 50 0,0
14.01.2019 07:00:00 -27,8 -30,4 7 4 11 6 W 50 0,0
14.01.2019 06:00:00 -26,6 -29,2 4 2 7 4 W 50 0,0
14.01.2019 05:00:00 -26,1 -28,9 5 3 6 4 W 50 0,0
14.01.2019 04:00:00 -24,5 -27,0 2 1 8 4 NE 35 0,0
14.01.2019 03:00:00 -22,3 -24,4 4 2 9 5 NE 50 0,0
14.01.2019 02:00:00 -21,7 -24,1 4 2 9 5 W 50 0,0
14.01.2019 01:00:00 -18,9 -21,1 6 3 10 5 ENE 50 0,0
14.01.2019 00:00:00 -16,2 -17,7 4 2 17 9 NNE 46 0,0
13.01.2019 23:00:00 -14,2 -16,2 4 2 24 13 NNE 50 0,0
13.01.2019 22:00:00 -10,9 -11,9 13 7 26 14 WNW 44 0,0
13.01.2019 21:00:00 -10,2 -11,8 13 7 31 17 WNW 42 0,0
13.01.2019 20:00:00 -8,8 -10,4 10 6 33 18 W 50 0,0
13.01.2019 19:00:00 -7,3 -8,4 12 7 34 18 NW - 0,1
13.01.2019 18:00:00 -7,0 -8,1 16 9 36 19 NW 8 0,0
13.01.2019 17:00:00 -7,3 -8,2 11 6 28 15 WNW 40 0,0
13.01.2019 16:00:00 -7,8 -8,6 3 1 9 5 SSW - 0,0
13.01.2019 15:00:00 -7,7 -8,6 3 2 16 8 NNW 3,4 0,2
13.01.2019 14:00:00 -7,9 -8,8 2 1 6 3 SE 1,5 0,4
13.01.2019 13:00:00 -7,7 -8,5 3 2 12 7 ENE 1,6 0,6
13.01.2019 12:00:00 -7,7 -8,6 7 4 18 10 NE 1,6 0,4
13.01.2019 11:00:00 -7,7 -8,6 10 5 22 12 NE 1,7 0,5
13.01.2019 10:00:00 -7,4 -8,2 8 4 15 8 NE 1,5 0,6
13.01.2019 09:00:00 -7,1 -7,9 6 3 13 7 NE 1,0 1,0
13.01.2019 08:00:00 -7,8 -8,6 3 2 6 4 W 1,2 0,4
13.01.2019 07:00:00 -8,1 -8,9 3 2 4 2 NE 2,9 0,1
13.01.2019 06:00:00 -7,8 -8,6 1 1 5 3 NW 1,9 0,3
13.01.2019 05:00:00 -7,8 -8,6 3 2 5 3 ENE 1,5 0,3
13.01.2019 04:00:00 -7,6 -8,4 3 2 10 6 WNW 3,6 0,0
13.01.2019 03:00:00 -8,1 -8,9 5 3 9 5 WNW 4,6 0,1
13.01.2019 02:00:00 -8,8 -9,7 4 2 7 4 W 6 0,0
13.01.2019 01:00:00 -8,9 -9,8 2 1 9 5 NW 50 0,0
13.01.2019 00:00:00 -9,3 -10,2 5 3 9 5 WSW 50 0,0
12.01.2019 23:00:00 -10,4 -11,4 6 3 9 5 WSW 41 0,0
12.01.2019 22:00:00 -9,3 -10,2 4 2 14 8 WSW 47 0,0
12.01.2019 21:00:00 - - - - 10 6 - - -
12.01.2019 20:00:00 -6,9 -7,7 4 2 14 8 WSW 47 0,0
12.01.2019 19:00:00 -7,4 -8,2 7 4 13 7 SW 41 0,0
12.01.2019 18:00:00 -8,6 -9,4 6 4 13 7 SW 39 0,0
12.01.2019 17:00:00 -9,0 -9,7 4 2 10 6 W 38 0,0
12.01.2019 16:00:00 -9,6 -10,4 6 3 13 7 ENE 35 0,0
12.01.2019 15:00:00 -8,9 -10,1 6 4 14 8 WSW 31 0,0
12.01.2019 14:00:00 -7,0 -8,1 5 3 21 12 WNW 42 0,0
12.01.2019 13:00:00 -5,7 -6,5 9 5 21 11 W 39 0,0

tt = Température de l'air
td = dewpoint
ff = Vitesse du vent
fx = gusts
dd = Direction du vent
vv = visibility
rr = Quantités de précipitations

stations d'obs. à proximité